createdAt,value
2019-03-20T00:01:26.250Z,71.43
2019-03-20T00:03:52.914Z,71.65
2019-03-20T00:06:19.625Z,71.08
2019-03-20T00:08:46.187Z,71.67
2019-03-20T00:11:50.403Z,71.57
2019-03-20T00:14:18.269Z,71.60
2019-03-20T00:16:44.915Z,70.77
2019-03-20T00:19:11.498Z,71.62
2019-03-20T00:21:38.166Z,73.44
2019-03-20T00:24:04.842Z,72.17
2019-03-20T00:26:33.336Z,71.02
2019-03-20T00:28:59.985Z,69.80
2019-03-20T00:31:26.761Z,70.11
2019-03-20T00:33:53.349Z,70.34
2019-03-20T00:36:21.038Z,69.75
2019-03-20T00:38:47.824Z,70.45
2019-03-20T00:41:14.529Z,70.65
2019-03-20T00:43:41.093Z,72.58
2019-03-20T00:46:07.833Z,71.67
2019-03-20T00:48:35.564Z,70.37
2019-03-20T00:51:02.326Z,70.52
2019-03-20T00:53:29.883Z,70.96
2019-03-20T00:55:56.655Z,71.28
2019-03-20T00:58:23.580Z,71.64
2019-03-20T01:00:50.341Z,70.82
2019-03-20T01:03:16.988Z,70.42
2019-03-20T01:05:43.646Z,69.95
2019-03-20T01:08:10.229Z,70.27
2019-03-20T01:10:36.896Z,71.47
2019-03-20T01:13:03.919Z,72.52
2019-03-20T01:15:30.572Z,73.50
2019-03-20T01:17:57.161Z,73.76
2019-03-20T01:21:20.333Z,73.25
2019-03-20T01:23:46.928Z,72.98
2019-03-20T01:26:13.599Z,72.40
2019-03-20T01:28:40.182Z,73.68
2019-03-20T01:31:06.960Z,74.08
2019-03-20T01:33:33.706Z,73.09
2019-03-20T01:36:00.283Z,73.23
2019-03-20T01:38:28.340Z,74.29
2019-03-20T01:40:54.944Z,72.93
2019-03-20T01:43:21.567Z,72.08
2019-03-20T01:45:48.154Z,72.08
2019-03-20T01:48:14.915Z,71.92
2019-03-20T01:50:42.837Z,72.12
2019-03-20T01:53:10.046Z,72.65
2019-03-20T01:55:36.743Z,71.89
2019-03-20T01:58:03.556Z,72.04
2019-03-20T02:00:31.099Z,71.79
2019-03-20T02:02:57.751Z,71.34
2019-03-20T02:05:35.143Z,71.00
2019-03-20T02:07:54.211Z,70.72
2019-03-20T02:10:21.030Z,71.19
2019-03-20T02:12:47.719Z,71.59
2019-03-20T02:15:17.577Z,72.13
2019-03-20T02:17:44.268Z,71.56
2019-03-20T02:20:16.046Z,71.23
2019-03-20T02:22:44.073Z,72.38
2019-03-20T02:25:12.589Z,72.16
2019-03-20T02:27:39.403Z,72.61
2019-03-20T02:30:11.591Z,74.10
2019-03-20T02:32:38.282Z,74.30
2019-03-20T02:35:05.784Z,74.22
2019-03-20T02:37:32.558Z,72.92
2019-03-20T02:39:59.154Z,72.98
2019-03-20T02:42:25.885Z,74.11
2019-03-20T02:44:52.540Z,74.49
2019-03-20T02:47:19.306Z,73.65
2019-03-20T02:49:45.882Z,72.81
2019-03-20T02:52:12.507Z,72.54
2019-03-20T02:54:39.062Z,72.52
2019-03-20T02:57:05.833Z,72.83
2019-03-20T02:59:32.400Z,72.95
2019-03-20T03:02:00.088Z,73.68
2019-03-20T03:04:26.813Z,73.90
2019-03-20T03:06:53.389Z,73.77
2019-03-20T03:09:19.997Z,73.74
2019-03-20T03:11:46.757Z,74.49
2019-03-20T03:14:13.334Z,74.01
2019-03-20T03:16:39.877Z,73.47
2019-03-20T03:19:06.473Z,74.15
2019-03-20T03:21:33.186Z,73.78
2019-03-20T03:23:59.787Z,73.38
2019-03-20T03:26:26.383Z,72.62
2019-03-20T03:28:53.069Z,72.33
2019-03-20T03:31:19.776Z,73.09
2019-03-20T03:33:46.454Z,73.69
2019-03-20T03:36:20.996Z,74.20
2019-03-20T03:38:41.530Z,74.28
2019-03-20T03:41:08.606Z,74.17
2019-03-20T03:43:35.408Z,74.39
2019-03-20T03:46:02.245Z,73.99
2019-03-20T03:48:28.817Z,73.61
2019-03-20T03:50:55.453Z,73.35
2019-03-20T03:53:22.041Z,72.79
2019-03-20T03:55:48.659Z,72.37
2019-03-20T03:58:15.335Z,73.11
2019-03-20T04:00:41.924Z,72.67
2019-03-20T04:03:08.588Z,72.07
2019-03-20T04:05:35.160Z,72.62
2019-03-20T04:08:01.859Z,74.02
2019-03-20T04:10:28.576Z,74.00
2019-03-20T04:12:55.165Z,73.59
2019-03-20T04:15:21.917Z,74.28
2019-03-20T04:17:48.571Z,73.56
2019-03-20T04:20:18.408Z,72.80
2019-03-20T04:22:45.224Z,71.54
2019-03-20T04:25:12.630Z,71.35
2019-03-20T04:27:39.740Z,71.37
2019-03-20T04:30:11.218Z,71.29
2019-03-20T04:32:37.957Z,72.30
2019-03-20T04:35:05.933Z,71.45
2019-03-20T04:37:32.506Z,72.20
2019-03-20T04:40:00.274Z,73.20
2019-03-20T04:42:27.360Z,72.94
2019-03-20T04:44:53.979Z,73.71
2019-03-20T04:47:20.618Z,73.08
2019-03-20T04:49:47.198Z,72.69
2019-03-20T04:52:13.872Z,72.35
2019-03-20T04:54:40.457Z,72.64
2019-03-20T04:57:07.157Z,71.42
2019-03-20T04:59:33.748Z,71.64
2019-03-20T05:02:00.318Z,72.37
2019-03-20T05:04:26.897Z,72.47
2019-03-20T05:06:58.771Z,71.40
2019-03-20T05:09:22.045Z,71.11
2019-03-20T05:11:48.840Z,72.20
2019-03-20T05:14:16.871Z,72.09
2019-03-20T05:16:43.444Z,71.58
2019-03-20T05:19:10.215Z,71.95
2019-03-20T05:21:36.818Z,72.31
2019-03-20T05:24:03.846Z,71.91
2019-03-20T05:26:30.433Z,72.20
2019-03-20T05:28:56.997Z,71.76
2019-03-20T05:31:23.850Z,71.25
2019-03-20T05:33:50.406Z,72.47
2019-03-20T05:36:17.025Z,71.92
2019-03-20T05:38:43.591Z,72.03
2019-03-20T05:41:10.333Z,73.16
2019-03-20T05:43:36.882Z,72.27
2019-03-20T05:46:03.500Z,72.89
2019-03-20T05:49:26.053Z,73.08
2019-03-20T05:51:52.785Z,73.28
2019-03-20T05:54:19.515Z,73.74
2019-03-20T05:56:49.295Z,73.36
2019-03-20T05:59:15.943Z,73.48
2019-03-20T06:01:42.500Z,72.98
2019-03-20T06:04:09.069Z,72.62
2019-03-20T06:06:35.757Z,72.44
2019-03-20T06:09:05.324Z,72.64
2019-03-20T06:11:31.875Z,72.28
2019-03-20T06:14:54.710Z,72.61
2019-03-20T06:17:21.302Z,72.50
2019-03-20T06:19:48.026Z,72.06
2019-03-20T06:22:14.662Z,72.29
2019-03-20T06:24:41.269Z,72.61
2019-03-20T06:27:07.969Z,72.29
2019-03-20T06:29:34.541Z,74.16
2019-03-20T06:32:01.149Z,73.51
2019-03-20T06:34:27.864Z,72.42
2019-03-20T06:36:54.654Z,73.11
2019-03-20T06:39:21.353Z,71.92
2019-03-20T06:41:47.947Z,73.89
2019-03-20T06:44:14.771Z,72.99
2019-03-20T06:46:41.368Z,73.65
2019-03-20T06:49:08.178Z,72.39
2019-03-20T06:51:34.785Z,72.73
2019-03-20T06:54:01.442Z,73.68
2019-03-20T06:56:28.083Z,71.53
2019-03-20T06:59:00.463Z,72.27
2019-03-20T07:01:27.949Z,72.09
2019-03-20T07:04:00.315Z,70.47
2019-03-20T07:06:30.731Z,69.79
2019-03-20T07:09:04.649Z,69.22
2019-03-20T07:11:36.969Z,68.06
2019-03-20T07:14:03.748Z,67.79
2019-03-20T07:16:30.388Z,67.26
2019-03-20T07:18:57.115Z,66.99
2019-03-20T07:21:23.843Z,66.39
2019-03-20T07:23:51.874Z,66.13
2019-03-20T07:26:18.482Z,65.71
2019-03-20T07:28:45.174Z,65.50
2019-03-20T07:31:15.581Z,65.88
2019-03-20T07:33:40.282Z,65.71
2019-03-20T07:36:06.973Z,65.27
2019-03-20T07:38:33.807Z,64.54
2019-03-20T07:41:00.679Z,64.10
2019-03-20T07:43:27.285Z,64.39
2019-03-20T07:45:53.949Z,62.90
2019-03-20T07:48:22.397Z,62.30
2019-03-20T07:50:49.006Z,62.09
2019-03-20T07:53:15.589Z,62.17
2019-03-20T07:55:42.155Z,61.26
2019-03-20T07:58:08.842Z,61.04
2019-03-20T08:00:35.701Z,60.59
2019-03-20T08:03:02.363Z,59.77
2019-03-20T08:05:29.756Z,59.40
2019-03-20T08:08:06.725Z,59.28
2019-03-20T08:10:27.323Z,59.75
2019-03-20T08:12:57.956Z,59.21
2019-03-20T08:15:25.282Z,58.68
2019-03-20T08:17:51.967Z,57.45
2019-03-20T08:20:22.940Z,56.09
2019-03-20T08:22:49.695Z,55.34
2019-03-20T08:25:16.247Z,55.39
2019-03-20T08:27:43.054Z,54.90
2019-03-20T08:30:14.333Z,55.73
2019-03-20T08:32:41.250Z,55.41
2019-03-20T08:35:10.554Z,55.08
2019-03-20T08:37:37.651Z,54.76
2019-03-20T08:40:09.215Z,53.70
2019-03-20T08:42:35.798Z,52.99
2019-03-20T08:45:07.221Z,53.23
2019-03-20T08:47:33.870Z,51.98
2019-03-20T08:50:00.727Z,51.43
2019-03-20T08:52:27.359Z,52.16
2019-03-20T08:54:53.999Z,52.15
2019-03-20T08:57:20.671Z,52.89
2019-03-20T08:59:47.327Z,53.40
2019-03-20T09:02:13.873Z,51.90
2019-03-20T09:04:40.492Z,50.86
2019-03-20T09:07:07.153Z,50.61
2019-03-20T09:09:33.820Z,49.75
2019-03-20T09:12:00.396Z,48.95
2019-03-20T09:14:26.979Z,48.88
2019-03-20T09:16:53.728Z,49.37
2019-03-20T09:19:20.282Z,48.37
2019-03-20T09:21:46.882Z,48.32
2019-03-20T09:24:13.481Z,48.81
2019-03-20T09:26:40.064Z,47.63
2019-03-20T09:29:06.649Z,46.13
2019-03-20T09:31:33.302Z,46.95
2019-03-20T09:33:59.939Z,46.55
2019-03-20T09:36:26.715Z,46.97
2019-03-20T09:38:53.482Z,45.70
2019-03-20T09:41:38.859Z,45.84
2019-03-20T09:44:05.530Z,46.00
2019-03-20T09:46:32.339Z,44.46
2019-03-20T09:48:59.015Z,44.61
2019-03-20T09:51:25.768Z,43.76
2019-03-20T09:53:52.373Z,43.44
2019-03-20T09:56:18.965Z,43.18
2019-03-20T09:58:45.572Z,42.34
2019-03-20T10:01:12.310Z,42.31
2019-03-20T10:03:38.898Z,41.79
2019-03-20T10:06:05.636Z,42.80
2019-03-20T10:08:32.311Z,42.60
2019-03-20T10:10:58.839Z,41.87
2019-03-20T10:13:26.739Z,42.24
2019-03-20T10:15:53.335Z,42.42
2019-03-20T10:18:21.142Z,42.89
2019-03-20T10:20:47.776Z,42.14
2019-03-20T10:23:15.195Z,42.03
2019-03-20T10:25:44.873Z,41.35
2019-03-20T10:29:06.570Z,41.21
2019-03-20T10:31:33.137Z,41.39
2019-03-20T10:33:59.804Z,42.02
2019-03-20T10:36:26.461Z,42.79
2019-03-20T10:38:53.119Z,43.18
2019-03-20T10:41:19.779Z,42.79
2019-03-20T10:44:42.490Z,44.25
2019-03-20T10:47:11.543Z,44.18
2019-03-20T10:49:37.585Z,43.12
2019-03-20T10:52:04.543Z,42.78
2019-03-20T10:54:31.435Z,43.06
2019-03-20T10:56:58.254Z,42.96
2019-03-20T10:59:24.926Z,43.20
2019-03-20T11:01:51.470Z,43.31
2019-03-20T11:04:18.121Z,42.95
2019-03-20T11:06:44.687Z,43.32
2019-03-20T11:09:18.114Z,43.55
2019-03-20T11:11:40.112Z,43.57
2019-03-20T11:14:06.675Z,44.34
2019-03-20T11:16:33.299Z,44.35
2019-03-20T11:18:59.886Z,43.64
2019-03-20T11:21:26.463Z,43.16
2019-03-20T11:23:53.029Z,41.91
2019-03-20T11:26:19.552Z,42.50
2019-03-20T11:28:46.308Z,42.25
2019-03-20T11:31:12.934Z,41.80
2019-03-20T11:33:39.712Z,41.07
2019-03-20T11:36:06.345Z,41.40
2019-03-20T11:38:32.941Z,40.95
2019-03-20T11:40:59.525Z,40.58
2019-03-20T11:43:26.271Z,38.83
2019-03-20T11:45:52.909Z,37.81
2019-03-20T11:48:19.479Z,37.66
2019-03-20T11:50:46.042Z,38.40
2019-03-20T11:53:12.611Z,38.60
2019-03-20T11:55:39.545Z,39.50
2019-03-20T11:58:06.608Z,39.44
2019-03-20T12:00:33.615Z,40.44
2019-03-20T12:03:00.420Z,40.31
2019-03-20T12:05:27.354Z,39.81
2019-03-20T12:07:56.140Z,39.92
2019-03-20T12:11:19.890Z,38.91
2019-03-20T12:13:47.136Z,38.96
2019-03-20T12:16:13.726Z,38.95
2019-03-20T12:18:40.432Z,40.04
2019-03-20T12:21:07.013Z,40.18
2019-03-20T12:23:33.909Z,40.59
2019-03-20T12:26:01.094Z,40.55
2019-03-20T12:28:27.681Z,39.90
2019-03-20T12:30:54.372Z,39.18
2019-03-20T12:33:21.144Z,39.52
2019-03-20T12:35:48.170Z,39.75
2019-03-20T12:38:16.006Z,39.32
2019-03-20T12:40:42.905Z,38.92
2019-03-20T12:43:09.787Z,38.87
2019-03-20T12:45:37.994Z,38.94
2019-03-20T12:48:08.797Z,39.08
2019-03-20T12:50:35.654Z,37.49
2019-03-20T12:53:05.053Z,38.00
2019-03-20T12:55:31.655Z,39.17
2019-03-20T12:57:58.467Z,39.41
2019-03-20T13:00:27.586Z,39.20
2019-03-20T13:02:54.785Z,39.34
2019-03-20T13:05:21.549Z,37.81
2019-03-20T13:07:49.687Z,36.22
2019-03-20T13:10:20.730Z,35.75
2019-03-20T13:12:47.867Z,35.72
2019-03-20T13:15:17.498Z,37.04
2019-03-20T13:17:44.234Z,37.98
2019-03-20T13:20:11.088Z,37.94
2019-03-20T13:22:38.033Z,37.53
2019-03-20T13:25:09.615Z,37.36
2019-03-20T13:27:36.563Z,37.23
2019-03-20T13:30:08.872Z,37.01
2019-03-20T13:32:35.546Z,37.21
2019-03-20T13:35:04.508Z,37.02
2019-03-20T13:37:32.361Z,36.62
2019-03-20T13:39:59.074Z,37.00
2019-03-20T13:42:26.792Z,36.21
2019-03-20T13:44:54.580Z,36.03
2019-03-20T13:47:25.329Z,35.57
2019-03-20T13:49:52.033Z,36.88
2019-03-20T13:52:18.616Z,37.06
2019-03-20T13:54:45.209Z,37.87
2019-03-20T13:57:11.862Z,38.18
2019-03-20T13:59:38.467Z,38.77
2019-03-20T14:02:05.251Z,39.31
2019-03-20T14:04:31.895Z,38.85
2019-03-20T14:07:01.463Z,38.11
2019-03-20T14:09:28.027Z,39.14
2019-03-20T14:11:54.649Z,39.29
2019-03-20T14:14:21.283Z,38.84
2019-03-20T14:16:47.907Z,38.15
2019-03-20T14:19:14.551Z,37.40
2019-03-20T14:21:41.239Z,37.33
2019-03-20T14:24:07.940Z,36.03
2019-03-20T14:26:34.545Z,37.29
2019-03-20T14:29:01.200Z,37.96
2019-03-20T14:31:27.910Z,37.15
2019-03-20T14:33:54.500Z,36.41
2019-03-20T14:36:21.226Z,36.31
2019-03-20T14:38:48.294Z,36.91
2019-03-20T14:41:21.447Z,37.31
2019-03-20T14:43:44.645Z,36.41
2019-03-20T14:46:11.236Z,37.04
2019-03-20T14:48:37.948Z,37.07
2019-03-20T14:51:04.651Z,37.11
2019-03-20T14:53:31.421Z,37.40
2019-03-20T14:55:58.097Z,37.10
2019-03-20T14:58:25.790Z,37.94
2019-03-20T15:00:53.866Z,36.84
2019-03-20T15:03:20.411Z,37.52
2019-03-20T15:05:47.112Z,37.76
2019-03-20T15:08:13.684Z,37.73
2019-03-20T15:10:45.935Z,37.72
2019-03-20T15:13:08.830Z,38.02
2019-03-20T15:15:40.572Z,37.47
2019-03-20T15:18:07.733Z,38.22
2019-03-20T15:20:34.702Z,38.59
2019-03-20T15:23:01.552Z,38.85
2019-03-20T15:26:43.373Z,39.22
2019-03-20T15:29:10.053Z,39.75
2019-03-20T15:31:36.675Z,39.16
2019-03-20T15:34:05.309Z,39.04
2019-03-20T15:36:33.067Z,39.22
2019-03-20T15:38:59.637Z,39.39
2019-03-20T15:41:26.463Z,39.80
2019-03-20T15:44:02.133Z,39.27
2019-03-20T15:46:21.679Z,39.10
2019-03-20T15:48:48.265Z,39.48
2019-03-20T15:52:11.576Z,39.74
2019-03-20T15:54:38.127Z,39.35
2019-03-20T15:57:04.753Z,39.26
2019-03-20T15:59:31.569Z,39.65
2019-03-20T16:01:58.175Z,40.08
2019-03-20T16:04:24.842Z,40.60
2019-03-20T16:06:53.466Z,40.61
2019-03-20T16:09:20.144Z,40.57
2019-03-20T16:11:46.730Z,40.78
2019-03-20T16:14:13.297Z,41.29
2019-03-20T16:16:39.885Z,41.42
2019-03-20T16:19:06.462Z,41.32
2019-03-20T16:21:33.045Z,41.20
2019-03-20T16:23:59.599Z,41.35
2019-03-20T16:26:26.245Z,41.04
2019-03-20T16:28:54.002Z,40.84
2019-03-20T16:31:21.846Z,40.43
2019-03-20T16:33:48.442Z,40.32
2019-03-20T16:36:15.187Z,40.75
2019-03-20T16:38:44.940Z,40.79
2019-03-20T16:41:16.789Z,41.33
2019-03-20T16:43:40.068Z,40.94
2019-03-20T16:46:08.033Z,41.24
2019-03-20T16:48:34.794Z,41.06
2019-03-20T16:51:01.530Z,41.39
2019-03-20T16:53:28.272Z,41.51
2019-03-20T16:55:54.826Z,41.50
2019-03-20T16:58:21.549Z,41.95
2019-03-20T17:00:48.444Z,41.94
2019-03-20T17:03:15.304Z,42.23
2019-03-20T17:05:42.307Z,42.47
2019-03-20T17:08:10.247Z,43.29
2019-03-20T17:10:41.816Z,43.00
2019-03-20T17:13:08.422Z,43.06
2019-03-20T17:15:39.401Z,43.63
2019-03-20T17:18:07.207Z,43.43
2019-03-20T17:20:34.065Z,43.62
2019-03-20T17:23:01.243Z,44.37
2019-03-20T17:25:28.221Z,45.30
2019-03-20T17:27:55.103Z,45.29
2019-03-20T17:30:26.815Z,44.31
2019-03-20T17:32:53.594Z,45.52
2019-03-20T17:35:21.382Z,45.91
2019-03-20T17:37:48.408Z,46.69
2019-03-20T17:40:20.064Z,47.23
2019-03-20T17:42:47.081Z,47.78
2019-03-20T17:45:17.485Z,49.04
2019-03-20T17:47:44.467Z,49.53
2019-03-20T17:50:17.232Z,50.36
2019-03-20T17:52:45.261Z,51.20
2019-03-20T17:55:12.572Z,51.64
2019-03-20T17:57:39.143Z,51.25
2019-03-20T18:00:12.309Z,51.82
2019-03-20T18:02:38.872Z,52.02
2019-03-20T18:05:07.900Z,51.51
2019-03-20T18:07:34.529Z,50.41
2019-03-20T18:10:01.086Z,50.06
2019-03-20T18:12:27.697Z,49.12
2019-03-20T18:14:55.383Z,50.01
2019-03-20T18:17:22.016Z,50.16
2019-03-20T18:19:48.588Z,50.37
2019-03-20T18:22:15.170Z,49.97
2019-03-20T18:24:41.792Z,50.02
2019-03-20T18:27:08.505Z,51.51
2019-03-20T18:29:35.187Z,51.81
2019-03-20T18:33:17.269Z,51.35
2019-03-20T18:35:43.853Z,52.34
2019-03-20T18:38:10.600Z,52.10
2019-03-20T18:40:37.329Z,52.82
2019-03-20T18:43:04.240Z,52.00
2019-03-20T18:45:31.039Z,51.93
2019-03-20T18:48:54.057Z,51.46
2019-03-20T18:51:20.666Z,50.50
2019-03-20T18:53:48.266Z,49.29
2019-03-20T18:56:15.021Z,49.09
2019-03-20T18:58:41.698Z,49.08
2019-03-20T19:01:10.080Z,48.70
2019-03-20T19:03:42.601Z,48.94
2019-03-20T19:06:14.928Z,49.84
2019-03-20T19:08:41.720Z,50.24
2019-03-20T19:11:08.459Z,50.87
2019-03-20T19:13:35.244Z,50.80
2019-03-20T19:16:02.152Z,51.17
2019-03-20T19:18:28.864Z,50.67
2019-03-20T19:20:55.654Z,51.66
2019-03-20T19:23:22.544Z,52.74
2019-03-20T19:25:49.145Z,52.32
2019-03-20T19:28:16.525Z,52.42
2019-03-20T19:30:43.134Z,52.43
2019-03-20T19:33:09.845Z,51.81
2019-03-20T19:35:36.644Z,52.11
2019-03-20T19:38:03.513Z,51.78
2019-03-20T19:40:30.152Z,52.01
2019-03-20T19:42:56.845Z,52.56
2019-03-20T19:45:23.681Z,53.40
2019-03-20T19:47:50.276Z,53.45
2019-03-20T19:50:20.581Z,53.66
2019-03-20T19:52:47.472Z,54.04
2019-03-20T19:55:16.264Z,52.71
2019-03-20T19:57:43.133Z,51.47
2019-03-20T20:00:15.470Z,51.33
2019-03-20T20:02:42.340Z,52.71
2019-03-20T20:05:15.937Z,53.02
2019-03-20T20:07:40.915Z,53.22
2019-03-20T20:10:12.324Z,53.30
2019-03-20T20:12:39.022Z,51.89
2019-03-20T20:15:12.425Z,51.61
2019-03-20T20:17:39.318Z,50.67
2019-03-20T20:20:11.601Z,49.90
2019-03-20T20:22:38.216Z,50.65
2019-03-20T20:25:06.461Z,51.37
2019-03-20T20:27:33.142Z,50.86
2019-03-20T20:29:59.770Z,50.63
2019-03-20T20:32:26.522Z,51.54
2019-03-20T20:34:53.131Z,51.86
2019-03-20T20:37:19.756Z,50.66
2019-03-20T20:39:46.364Z,50.39
2019-03-20T20:42:12.976Z,49.47
2019-03-20T20:44:40.571Z,50.05
2019-03-20T20:48:03.670Z,48.67
2019-03-20T20:50:32.210Z,48.81
2019-03-20T20:52:59.065Z,48.52
2019-03-20T20:55:25.826Z,48.65
2019-03-20T20:57:52.581Z,48.82
2019-03-20T21:00:21.862Z,49.04
2019-03-20T21:02:48.989Z,48.95
2019-03-20T21:05:16.676Z,48.46
2019-03-20T21:08:41.425Z,48.37
2019-03-20T21:11:08.112Z,48.81
2019-03-20T21:14:12.182Z,48.69
2019-03-20T21:16:38.803Z,48.47
2019-03-20T21:19:11.216Z,48.39
2019-03-20T21:21:40.877Z,48.79
2019-03-20T21:24:14.317Z,48.26
2019-03-20T21:26:46.643Z,48.37
2019-03-20T21:29:19.191Z,48.75
2019-03-20T21:31:51.656Z,48.38
2019-03-20T21:34:24.115Z,48.31
2019-03-20T21:36:56.572Z,48.33
2019-03-20T21:39:29.232Z,48.16
2019-03-20T21:42:00.096Z,48.28
2019-03-20T21:44:28.994Z,48.01
2019-03-20T21:46:59.435Z,48.24
2019-03-20T21:53:25.660Z,48.49
2019-03-20T21:55:58.211Z,47.91
2019-03-20T21:58:30.457Z,48.04
2019-03-20T22:01:02.823Z,48.04
2019-03-20T22:03:30.772Z,47.92
2019-03-20T22:06:01.174Z,47.86
2019-03-20T22:08:27.793Z,47.76
2019-03-20T22:11:03.014Z,47.27
2019-03-20T22:13:35.434Z,47.81
2019-03-20T22:16:08.220Z,48.11
2019-03-20T22:18:40.623Z,47.95
2019-03-20T22:21:13.209Z,48.46
2019-03-20T22:23:43.720Z,48.34
2019-03-20T22:26:16.096Z,48.36
2019-03-20T22:28:46.585Z,48.45
2019-03-20T22:31:13.441Z,48.13
2019-03-20T22:33:45.736Z,48.05
2019-03-20T22:36:12.769Z,48.52
2019-03-20T22:38:45.084Z,48.28
2019-03-20T22:41:16.701Z,48.53
2019-03-20T22:43:49.056Z,48.47
2019-03-20T22:46:21.530Z,48.43
2019-03-20T22:48:53.907Z,48.28
2019-03-20T22:51:26.400Z,48.31
2019-03-20T22:53:56.866Z,48.63
2019-03-20T22:56:30.388Z,48.22
2019-03-20T22:58:56.951Z,48.25
2019-03-20T23:01:29.344Z,48.25
2019-03-20T23:04:01.810Z,48.47
2019-03-20T23:06:28.566Z,48.17
2019-03-20T23:08:55.294Z,47.64
2019-03-20T23:11:22.190Z,47.77
2019-03-20T23:13:48.757Z,47.57
2019-03-20T23:16:19.222Z,47.57
2019-03-20T23:18:45.808Z,47.16
2019-03-20T23:21:12.378Z,47.45
2019-03-20T23:23:40.298Z,47.17
2019-03-20T23:26:07.166Z,47.19
2019-03-20T23:28:34.005Z,47.41
2019-03-20T23:31:00.609Z,47.19
2019-03-20T23:33:27.367Z,47.29
2019-03-20T23:35:53.995Z,47.27
2019-03-20T23:38:20.786Z,47.10
2019-03-20T23:40:47.471Z,46.82
2019-03-20T23:43:14.219Z,47.16
2019-03-20T23:45:40.938Z,47.19
2019-03-20T23:48:09.480Z,46.80
2019-03-20T23:50:36.234Z,46.64
2019-03-20T23:53:03.347Z,46.83
2019-03-20T23:55:30.242Z,46.56
2019-03-20T23:57:56.891Z,46.92
